sensor_id;sensor_type;location;lat;lon;timestamp;P1;durP1;ratioP1;P2;durP2;ratioP2
793;SDS011;380;48.738;9.214;2023-12-29T00:01:35;3.13;;;1.65;;
793;SDS011;380;48.738;9.214;2023-12-29T00:04:00;3.33;;;1.60;;
793;SDS011;380;48.738;9.214;2023-12-29T00:06:26;4.15;;;1.65;;
793;SDS011;380;48.738;9.214;2023-12-29T00:08:52;2.55;;;1.23;;
793;SDS011;380;48.738;9.214;2023-12-29T00:11:21;3.88;;;1.73;;
793;SDS011;380;48.738;9.214;2023-12-29T00:13:47;2.15;;;1.10;;
793;SDS011;380;48.738;9.214;2023-12-29T00:16:16;5.15;;;1.23;;
793;SDS011;380;48.738;9.214;2023-12-29T00:18:42;3.08;;;1.70;;
793;SDS011;380;48.738;9.214;2023-12-29T00:21:08;2.55;;;1.60;;
793;SDS011;380;48.738;9.214;2023-12-29T00:23:34;2.30;;;1.60;;
793;SDS011;380;48.738;9.214;2023-12-29T00:26:00;2.20;;;1.50;;
793;SDS011;380;48.738;9.214;2023-12-29T00:28:26;2.58;;;1.17;;
793;SDS011;380;48.738;9.214;2023-12-29T00:30:52;1.55;;;1.02;;
793;SDS011;380;48.738;9.214;2023-12-29T00:33:18;2.05;;;1.45;;
793;SDS011;380;48.738;9.214;2023-12-29T00:35:44;2.60;;;1.50;;
793;SDS011;380;48.738;9.214;2023-12-29T00:38:10;2.25;;;1.48;;
793;SDS011;380;48.738;9.214;2023-12-29T00:40:36;4.32;;;1.60;;
793;SDS011;380;48.738;9.214;2023-12-29T00:43:02;3.47;;;1.65;;
793;SDS011;380;48.738;9.214;2023-12-29T00:45:28;2.67;;;1.85;;
793;SDS011;380;48.738;9.214;2023-12-29T00:47:57;2.40;;;1.60;;
793;SDS011;380;48.738;9.214;2023-12-29T00:50:23;2.13;;;1.30;;
793;SDS011;380;48.738;9.214;2023-12-29T00:52:49;3.67;;;1.85;;
793;SDS011;380;48.738;9.214;2023-12-29T00:55:15;2.40;;;1.48;;
793;SDS011;380;48.738;9.214;2023-12-29T00:57:41;2.70;;;1.27;;
793;SDS011;380;48.738;9.214;2023-12-29T01:00:10;2.22;;;1.55;;
793;SDS011;380;48.738;9.214;2023-12-29T01:02:37;2.42;;;1.80;;
793;SDS011;380;48.738;9.214;2023-12-29T01:05:03;1.95;;;1.30;;
793;SDS011;380;48.738;9.214;2023-12-29T01:07:29;2.28;;;1.45;;
793;SDS011;380;48.738;9.214;2023-12-29T01:09:55;2.50;;;1.60;;
793;SDS011;380;48.738;9.214;2023-12-29T01:12:21;2.30;;;1.42;;
793;SDS011;380;48.738;9.214;2023-12-29T01:14:47;3.15;;;1.95;;
793;SDS011;380;48.738;9.214;2023-12-29T01:17:12;2.92;;;1.85;;
793;SDS011;380;48.738;9.214;2023-12-29T01:19:38;2.40;;;1.80;;
793;SDS011;380;48.738;9.214;2023-12-29T01:22:04;3.90;;;1.80;;
793;SDS011;380;48.738;9.214;2023-12-29T01:24:30;2.72;;;1.40;;
793;SDS011;380;48.738;9.214;2023-12-29T01:26:56;3.50;;;2.13;;
793;SDS011;380;48.738;9.214;2023-12-29T01:29:22;2.97;;;2.13;;
793;SDS011;380;48.738;9.214;2023-12-29T01:31:48;3.72;;;1.70;;
793;SDS011;380;48.738;9.214;2023-12-29T01:34:14;2.60;;;1.70;;
793;SDS011;380;48.738;9.214;2023-12-29T01:36:40;4.80;;;1.88;;
793;SDS011;380;48.738;9.214;2023-12-29T01:39:06;2.72;;;2.00;;
793;SDS011;380;48.738;9.214;2023-12-29T01:41:32;2.63;;;1.95;;
793;SDS011;380;48.738;9.214;2023-12-29T01:46:29;2.47;;;1.65;;
793;SDS011;380;48.738;9.214;2023-12-29T01:48:55;3.60;;;1.90;;
793;SDS011;380;48.738;9.214;2023-12-29T01:51:21;3.92;;;2.28;;
793;SDS011;380;48.738;9.214;2023-12-29T01:53:49;3.78;;;2.38;;
793;SDS011;380;48.738;9.214;2023-12-29T01:56:16;2.67;;;1.73;;
793;SDS011;380;48.738;9.214;2023-12-29T01:58:43;3.72;;;2.00;;
793;SDS011;380;48.738;9.214;2023-12-29T02:01:09;2.30;;;1.73;;
793;SDS011;380;48.738;9.214;2023-12-29T02:03:35;2.97;;;2.08;;
793;SDS011;380;48.738;9.214;2023-12-29T02:06:02;3.85;;;2.30;;
793;SDS011;380;48.738;9.214;2023-12-29T02:08:31;3.78;;;1.80;;
793;SDS011;380;48.738;9.214;2023-12-29T02:10:57;3.55;;;1.90;;
793;SDS011;380;48.738;9.214;2023-12-29T02:13:23;2.83;;;2.05;;
793;SDS011;380;48.738;9.214;2023-12-29T02:15:52;4.97;;;2.22;;
793;SDS011;380;48.738;9.214;2023-12-29T02:18:19;3.45;;;2.40;;
793;SDS011;380;48.738;9.214;2023-12-29T02:20:46;2.55;;;1.73;;
793;SDS011;380;48.738;9.214;2023-12-29T02:23:12;3.53;;;2.25;;
793;SDS011;380;48.738;9.214;2023-12-29T02:25:38;3.03;;;2.13;;
793;SDS011;380;48.738;9.214;2023-12-29T02:28:04;4.97;;;2.40;;
793;SDS011;380;48.738;9.214;2023-12-29T02:30:49;3.25;;;1.98;;
793;SDS011;380;48.738;9.214;2023-12-29T02:33:19;3.08;;;2.25;;
793;SDS011;380;48.738;9.214;2023-12-29T02:35:45;3.25;;;2.50;;
793;SDS011;380;48.738;9.214;2023-12-29T02:38:14;4.75;;;2.72;;
793;SDS011;380;48.738;9.214;2023-12-29T02:40:40;3.72;;;2.63;;
793;SDS011;380;48.738;9.214;2023-12-29T02:43:05;4.15;;;2.45;;
793;SDS011;380;48.738;9.214;2023-12-29T02:45:31;3.63;;;2.03;;
793;SDS011;380;48.738;9.214;2023-12-29T02:47:57;2.97;;;2.15;;
793;SDS011;380;48.738;9.214;2023-12-29T02:50:23;2.55;;;1.98;;
793;SDS011;380;48.738;9.214;2023-12-29T02:52:49;2.45;;;2.00;;
793;SDS011;380;48.738;9.214;2023-12-29T02:55:15;3.33;;;2.00;;
793;SDS011;380;48.738;9.214;2023-12-29T02:57:41;4.05;;;2.53;;
793;SDS011;380;48.738;9.214;2023-12-29T03:00:07;3.85;;;2.50;;
793;SDS011;380;48.738;9.214;2023-12-29T03:02:33;3.33;;;2.35;;
793;SDS011;380;48.738;9.214;2023-12-29T03:04:59;3.70;;;2.47;;
793;SDS011;380;48.738;9.214;2023-12-29T03:07:25;2.88;;;1.95;;
793;SDS011;380;48.738;9.214;2023-12-29T03:09:51;4.40;;;2.00;;
793;SDS011;380;48.738;9.214;2023-12-29T03:12:17;3.33;;;2.33;;
793;SDS011;380;48.738;9.214;2023-12-29T03:14:46;4.93;;;2.35;;
793;SDS011;380;48.738;9.214;2023-12-29T03:17:12;3.95;;;2.38;;
793;SDS011;380;48.738;9.214;2023-12-29T03:19:38;3.78;;;2.47;;
793;SDS011;380;48.738;9.214;2023-12-29T03:22:04;5.60;;;2.70;;
793;SDS011;380;48.738;9.214;2023-12-29T03:24:30;3.40;;;2.53;;
793;SDS011;380;48.738;9.214;2023-12-29T03:26:56;3.08;;;2.55;;
793;SDS011;380;48.738;9.214;2023-12-29T03:29:25;6.28;;;3.33;;
793;SDS011;380;48.738;9.214;2023-12-29T03:31:51;3.28;;;2.35;;
793;SDS011;380;48.738;9.214;2023-12-29T03:34:17;4.25;;;2.92;;
793;SDS011;380;48.738;9.214;2023-12-29T03:36:44;4.18;;;2.60;;
793;SDS011;380;48.738;9.214;2023-12-29T03:39:10;3.78;;;2.45;;
793;SDS011;380;48.738;9.214;2023-12-29T03:41:36;8.23;;;3.22;;
793;SDS011;380;48.738;9.214;2023-12-29T03:44:03;3.25;;;2.65;;
793;SDS011;380;48.738;9.214;2023-12-29T03:46:30;3.17;;;2.30;;
793;SDS011;380;48.738;9.214;2023-12-29T03:48:57;5.25;;;2.72;;
793;SDS011;380;48.738;9.214;2023-12-29T03:51:23;4.82;;;2.42;;
793;SDS011;380;48.738;9.214;2023-12-29T03:53:49;3.25;;;2.53;;
793;SDS011;380;48.738;9.214;2023-12-29T03:56:16;3.42;;;1.90;;
793;SDS011;380;48.738;9.214;2023-12-29T03:58:43;3.13;;;2.55;;
793;SDS011;380;48.738;9.214;2023-12-29T04:01:09;3.38;;;2.17;;
793;SDS011;380;48.738;9.214;2023-12-29T04:03:36;2.65;;;2.13;;
793;SDS011;380;48.738;9.214;2023-12-29T04:06:02;3.15;;;1.95;;
793;SDS011;380;48.738;9.214;2023-12-29T04:08:28;2.58;;;2.00;;
793;SDS011;380;48.738;9.214;2023-12-29T04:10:56;3.35;;;2.00;;
793;SDS011;380;48.738;9.214;2023-12-29T04:13:22;3.28;;;2.40;;
793;SDS011;380;48.738;9.214;2023-12-29T04:15:48;3.15;;;2.17;;
793;SDS011;380;48.738;9.214;2023-12-29T04:18:14;4.90;;;2.20;;
793;SDS011;380;48.738;9.214;2023-12-29T04:20:40;4.90;;;2.30;;
793;SDS011;380;48.738;9.214;2023-12-29T04:23:06;3.65;;;2.20;;
793;SDS011;380;48.738;9.214;2023-12-29T04:25:32;3.78;;;2.63;;
793;SDS011;380;48.738;9.214;2023-12-29T04:27:58;2.65;;;2.03;;
793;SDS011;380;48.738;9.214;2023-12-29T04:30:24;3.28;;;2.47;;
793;SDS011;380;48.738;9.214;2023-12-29T04:32:50;3.20;;;2.13;;
793;SDS011;380;48.738;9.214;2023-12-29T04:35:16;3.20;;;2.28;;
793;SDS011;380;48.738;9.214;2023-12-29T04:37:43;4.72;;;2.83;;
793;SDS011;380;48.738;9.214;2023-12-29T04:40:10;5.03;;;2.10;;
793;SDS011;380;48.738;9.214;2023-12-29T04:42:36;4.45;;;2.40;;
793;SDS011;380;48.738;9.214;2023-12-29T04:45:03;3.33;;;2.08;;
793;SDS011;380;48.738;9.214;2023-12-29T04:47:29;3.35;;;2.20;;
793;SDS011;380;48.738;9.214;2023-12-29T04:49:55;2.95;;;2.35;;
793;SDS011;380;48.738;9.214;2023-12-29T04:52:21;4.82;;;2.58;;
793;SDS011;380;48.738;9.214;2023-12-29T04:54:46;3.55;;;2.40;;
793;SDS011;380;48.738;9.214;2023-12-29T04:57:12;2.88;;;2.00;;
793;SDS011;380;48.738;9.214;2023-12-29T04:59:38;3.33;;;2.33;;
793;SDS011;380;48.738;9.214;2023-12-29T05:02:04;2.53;;;1.85;;
793;SDS011;380;48.738;9.214;2023-12-29T05:04:30;2.83;;;2.15;;
793;SDS011;380;48.738;9.214;2023-12-29T05:06:56;4.22;;;2.25;;
793;SDS011;380;48.738;9.214;2023-12-29T05:09:22;3.60;;;2.15;;
793;SDS011;380;48.738;9.214;2023-12-29T05:11:48;3.53;;;2.25;;
793;SDS011;380;48.738;9.214;2023-12-29T05:14:14;4.60;;;2.67;;
793;SDS011;380;48.738;9.214;2023-12-29T05:16:44;3.38;;;2.50;;
793;SDS011;380;48.738;9.214;2023-12-29T05:19:10;3.10;;;2.08;;
793;SDS011;380;48.738;9.214;2023-12-29T05:21:35;3.05;;;2.38;;
793;SDS011;380;48.738;9.214;2023-12-29T05:24:01;4.40;;;1.98;;
793;SDS011;380;48.738;9.214;2023-12-29T05:26:29;3.28;;;2.20;;
793;SDS011;380;48.738;9.214;2023-12-29T05:28:55;3.47;;;2.13;;
793;SDS011;380;48.738;9.214;2023-12-29T05:31:20;5.78;;;2.60;;
793;SDS011;380;48.738;9.214;2023-12-29T05:33:46;3.38;;;2.35;;
793;SDS011;380;48.738;9.214;2023-12-29T05:36:12;2.80;;;2.30;;
793;SDS011;380;48.738;9.214;2023-12-29T05:38:38;3.10;;;2.10;;
793;SDS011;380;48.738;9.214;2023-12-29T05:41:06;2.95;;;2.20;;
793;SDS011;380;48.738;9.214;2023-12-29T05:43:32;3.60;;;2.42;;
793;SDS011;380;48.738;9.214;2023-12-29T05:45:59;3.83;;;2.47;;
793;SDS011;380;48.738;9.214;2023-12-29T05:48:25;4.80;;;2.47;;
793;SDS011;380;48.738;9.214;2023-12-29T05:50:51;6.50;;;2.63;;
793;SDS011;380;48.738;9.214;2023-12-29T05:53:17;3.67;;;2.67;;
793;SDS011;380;48.738;9.214;2023-12-29T05:55:43;4.22;;;2.50;;
793;SDS011;380;48.738;9.214;2023-12-29T05:58:10;3.92;;;2.85;;
793;SDS011;380;48.738;9.214;2023-12-29T06:00:39;2.92;;;2.15;;
793;SDS011;380;48.738;9.214;2023-12-29T06:03:05;3.42;;;2.42;;
793;SDS011;380;48.738;9.214;2023-12-29T06:05:31;4.18;;;2.80;;
793;SDS011;380;48.738;9.214;2023-12-29T06:07:58;3.65;;;2.65;;
793;SDS011;380;48.738;9.214;2023-12-29T06:10:24;3.20;;;2.10;;
793;SDS011;380;48.738;9.214;2023-12-29T06:12:50;5.35;;;2.53;;
793;SDS011;380;48.738;9.214;2023-12-29T06:15:16;3.50;;;2.50;;
793;SDS011;380;48.738;9.214;2023-12-29T06:17:42;3.03;;;2.10;;
793;SDS011;380;48.738;9.214;2023-12-29T06:20:08;3.15;;;2.38;;
793;SDS011;380;48.738;9.214;2023-12-29T06:22:38;3.30;;;2.45;;
793;SDS011;380;48.738;9.214;2023-12-29T06:25:08;5.65;;;2.95;;
793;SDS011;380;48.738;9.214;2023-12-29T06:27:35;3.35;;;2.38;;
793;SDS011;380;48.738;9.214;2023-12-29T06:30:04;3.78;;;2.65;;
793;SDS011;380;48.738;9.214;2023-12-29T06:32:30;3.22;;;2.58;;
793;SDS011;380;48.738;9.214;2023-12-29T06:34:56;4.40;;;2.33;;
793;SDS011;380;48.738;9.214;2023-12-29T06:37:22;3.08;;;1.88;;
793;SDS011;380;48.738;9.214;2023-12-29T06:39:48;3.42;;;2.22;;
793;SDS011;380;48.738;9.214;2023-12-29T06:42:14;3.40;;;2.05;;
793;SDS011;380;48.738;9.214;2023-12-29T06:44:40;3.47;;;2.45;;
793;SDS011;380;48.738;9.214;2023-12-29T06:47:06;3.10;;;2.15;;
793;SDS011;380;48.738;9.214;2023-12-29T06:49:34;4.13;;;2.60;;
793;SDS011;380;48.738;9.214;2023-12-29T06:52:00;4.13;;;2.28;;
793;SDS011;380;48.738;9.214;2023-12-29T06:54:26;3.25;;;2.13;;
793;SDS011;380;48.738;9.214;2023-12-29T06:56:52;4.70;;;2.72;;
793;SDS011;380;48.738;9.214;2023-12-29T06:59:18;4.22;;;2.85;;
793;SDS011;380;48.738;9.214;2023-12-29T07:01:44;4.55;;;2.50;;
793;SDS011;380;48.738;9.214;2023-12-29T07:04:11;4.45;;;2.22;;
793;SDS011;380;48.738;9.214;2023-12-29T07:06:37;3.20;;;2.42;;
793;SDS011;380;48.738;9.214;2023-12-29T07:09:03;3.45;;;2.22;;
793;SDS011;380;48.738;9.214;2023-12-29T07:11:29;3.38;;;2.42;;
793;SDS011;380;48.738;9.214;2023-12-29T07:13:55;4.97;;;2.40;;
793;SDS011;380;48.738;9.214;2023-12-29T07:16:21;2.72;;;1.58;;
793;SDS011;380;48.738;9.214;2023-12-29T07:18:47;2.95;;;2.05;;
793;SDS011;380;48.738;9.214;2023-12-29T07:21:14;2.45;;;1.83;;
793;SDS011;380;48.738;9.214;2023-12-29T07:23:41;3.25;;;2.15;;
793;SDS011;380;48.738;9.214;2023-12-29T07:26:07;2.90;;;1.92;;
793;SDS011;380;48.738;9.214;2023-12-29T07:28:36;5.15;;;2.80;;
793;SDS011;380;48.738;9.214;2023-12-29T07:31:02;3.55;;;2.58;;
793;SDS011;380;48.738;9.214;2023-12-29T07:33:28;3.00;;;2.22;;
793;SDS011;380;48.738;9.214;2023-12-29T07:35:54;3.08;;;2.30;;
793;SDS011;380;48.738;9.214;2023-12-29T07:38:20;2.83;;;2.10;;
793;SDS011;380;48.738;9.214;2023-12-29T07:40:46;2.80;;;1.70;;
793;SDS011;380;48.738;9.214;2023-12-29T07:43:15;3.15;;;2.22;;
793;SDS011;380;48.738;9.214;2023-12-29T07:45:41;3.25;;;1.65;;
793;SDS011;380;48.738;9.214;2023-12-29T07:48:08;3.70;;;2.40;;
793;SDS011;380;48.738;9.214;2023-12-29T07:50:34;3.72;;;2.30;;
793;SDS011;380;48.738;9.214;2023-12-29T07:53:01;3.25;;;2.13;;
793;SDS011;380;48.738;9.214;2023-12-29T07:55:28;2.80;;;2.10;;
793;SDS011;380;48.738;9.214;2023-12-29T07:57:54;4.07;;;2.08;;
793;SDS011;380;48.738;9.214;2023-12-29T08:00:20;2.67;;;1.75;;
793;SDS011;380;48.738;9.214;2023-12-29T08:02:47;3.80;;;2.70;;
793;SDS011;380;48.738;9.214;2023-12-29T08:05:13;3.25;;;2.28;;
793;SDS011;380;48.738;9.214;2023-12-29T08:07:40;3.40;;;2.20;;
793;SDS011;380;48.738;9.214;2023-12-29T08:10:06;4.55;;;2.38;;
793;SDS011;380;48.738;9.214;2023-12-29T08:12:33;3.83;;;2.20;;
793;SDS011;380;48.738;9.214;2023-12-29T08:14:59;3.97;;;2.10;;
793;SDS011;380;48.738;9.214;2023-12-29T08:17:25;2.80;;;2.03;;
793;SDS011;380;48.738;9.214;2023-12-29T08:19:52;8.57;;;2.28;;
793;SDS011;380;48.738;9.214;2023-12-29T08:22:19;2.78;;;1.80;;
793;SDS011;380;48.738;9.214;2023-12-29T08:24:45;2.75;;;2.10;;
793;SDS011;380;48.738;9.214;2023-12-29T08:27:13;4.95;;;1.80;;
793;SDS011;380;48.738;9.214;2023-12-29T08:29:40;2.92;;;2.00;;
793;SDS011;380;48.738;9.214;2023-12-29T08:32:06;2.97;;;2.03;;
793;SDS011;380;48.738;9.214;2023-12-29T08:34:32;3.83;;;2.10;;
793;SDS011;380;48.738;9.214;2023-12-29T08:37:03;2.78;;;2.00;;
793;SDS011;380;48.738;9.214;2023-12-29T08:39:29;3.58;;;3.25;;
793;SDS011;380;48.738;9.214;2023-12-29T08:41:55;3.72;;;1.63;;
793;SDS011;380;48.738;9.214;2023-12-29T08:44:21;2.80;;;1.90;;
793;SDS011;380;48.738;9.214;2023-12-29T08:46:47;3.80;;;2.00;;
793;SDS011;380;48.738;9.214;2023-12-29T08:49:13;5.30;;;2.25;;
793;SDS011;380;48.738;9.214;2023-12-29T08:51:38;2.70;;;1.85;;
793;SDS011;380;48.738;9.214;2023-12-29T08:54:14;3.17;;;2.03;;
793;SDS011;380;48.738;9.214;2023-12-29T08:56:55;2.95;;;1.70;;
793;SDS011;380;48.738;9.214;2023-12-29T08:59:21;4.20;;;2.30;;
793;SDS011;380;48.738;9.214;2023-12-29T09:01:48;3.83;;;1.70;;
793;SDS011;380;48.738;9.214;2023-12-29T09:04:14;5.88;;;2.08;;
793;SDS011;380;48.738;9.214;2023-12-29T09:06:43;2.80;;;1.80;;
793;SDS011;380;48.738;9.214;2023-12-29T09:09:09;3.47;;;2.13;;
793;SDS011;380;48.738;9.214;2023-12-29T09:11:38;3.40;;;1.88;;
793;SDS011;380;48.738;9.214;2023-12-29T09:14:04;3.38;;;2.00;;
793;SDS011;380;48.738;9.214;2023-12-29T09:16:30;3.33;;;1.45;;
793;SDS011;380;48.738;9.214;2023-12-29T09:18:56;3.28;;;2.17;;
793;SDS011;380;48.738;9.214;2023-12-29T09:21:22;2.50;;;1.52;;
793;SDS011;380;48.738;9.214;2023-12-29T09:23:48;3.90;;;1.83;;
793;SDS011;380;48.738;9.214;2023-12-29T09:26:15;2.15;;;1.48;;
793;SDS011;380;48.738;9.214;2023-12-29T09:28:41;4.10;;;1.55;;
793;SDS011;380;48.738;9.214;2023-12-29T09:31:10;2.05;;;1.38;;
793;SDS011;380;48.738;9.214;2023-12-29T09:33:36;2.28;;;1.55;;
793;SDS011;380;48.738;9.214;2023-12-29T09:36:03;3.33;;;1.67;;
793;SDS011;380;48.738;9.214;2023-12-29T09:38:29;2.33;;;1.35;;
793;SDS011;380;48.738;9.214;2023-12-29T09:40:55;2.30;;;1.40;;
793;SDS011;380;48.738;9.214;2023-12-29T09:43:24;1.80;;;1.30;;
793;SDS011;380;48.738;9.214;2023-12-29T09:45:51;5.15;;;1.30;;
793;SDS011;380;48.738;9.214;2023-12-29T09:48:17;2.20;;;1.48;;
793;SDS011;380;48.738;9.214;2023-12-29T09:50:46;2.35;;;1.15;;
793;SDS011;380;48.738;9.214;2023-12-29T09:53:41;2.53;;;1.55;;
793;SDS011;380;48.738;9.214;2023-12-29T09:56:07;2.45;;;1.23;;
793;SDS011;380;48.738;9.214;2023-12-29T09:58:34;5.00;;;1.48;;
793;SDS011;380;48.738;9.214;2023-12-29T10:01:04;2.33;;;1.45;;
793;SDS011;380;48.738;9.214;2023-12-29T10:03:31;2.30;;;1.23;;
793;SDS011;380;48.738;9.214;2023-12-29T10:05:59;2.63;;;1.73;;
793;SDS011;380;48.738;9.214;2023-12-29T10:08:26;1.58;;;1.02;;
793;SDS011;380;48.738;9.214;2023-12-29T10:10:55;2.42;;;1.35;;
793;SDS011;380;48.738;9.214;2023-12-29T10:13:21;2.00;;;1.35;;
793;SDS011;380;48.738;9.214;2023-12-29T10:15:49;2.65;;;1.75;;
793;SDS011;380;48.738;9.214;2023-12-29T10:18:24;3.25;;;1.90;;
793;SDS011;380;48.738;9.214;2023-12-29T10:23:23;2.63;;;1.40;;
793;SDS011;380;48.738;9.214;2023-12-29T10:25:54;1.88;;;1.08;;
793;SDS011;380;48.738;9.214;2023-12-29T10:28:20;2.38;;;1.40;;
793;SDS011;380;48.738;9.214;2023-12-29T10:30:47;3.88;;;1.13;;
793;SDS011;380;48.738;9.214;2023-12-29T10:33:18;1.80;;;1.05;;
793;SDS011;380;48.738;9.214;2023-12-29T10:35:59;1.83;;;1.27;;
793;SDS011;380;48.738;9.214;2023-12-29T10:38:27;2.47;;;1.10;;
793;SDS011;380;48.738;9.214;2023-12-29T10:40:53;1.98;;;1.10;;
793;SDS011;380;48.738;9.214;2023-12-29T10:43:25;2.53;;;1.30;;
793;SDS011;380;48.738;9.214;2023-12-29T10:49:17;1.83;;;1.05;;
793;SDS011;380;48.738;9.214;2023-12-29T10:51:43;2.28;;;1.10;;
793;SDS011;380;48.738;9.214;2023-12-29T10:54:09;2.58;;;1.27;;
793;SDS011;380;48.738;9.214;2023-12-29T10:56:44;1.55;;;0.93;;
793;SDS011;380;48.738;9.214;2023-12-29T10:59:10;1.95;;;0.95;;
793;SDS011;380;48.738;9.214;2023-12-29T11:01:38;1.77;;;1.00;;
793;SDS011;380;48.738;9.214;2023-12-29T11:04:05;2.00;;;1.13;;
793;SDS011;380;48.738;9.214;2023-12-29T11:06:41;1.92;;;0.93;;
793;SDS011;380;48.738;9.214;2023-12-29T11:09:09;2.10;;;1.17;;
793;SDS011;380;48.738;9.214;2023-12-29T11:11:36;1.88;;;1.10;;
793;SDS011;380;48.738;9.214;2023-12-29T11:14:02;2.40;;;1.10;;
793;SDS011;380;48.738;9.214;2023-12-29T11:16:29;4.32;;;1.45;;
793;SDS011;380;48.738;9.214;2023-12-29T11:18:56;1.88;;;1.00;;
793;SDS011;380;48.738;9.214;2023-12-29T11:21:23;1.92;;;0.85;;
793;SDS011;380;48.738;9.214;2023-12-29T11:23:50;1.83;;;0.90;;
793;SDS011;380;48.738;9.214;2023-12-29T11:26:16;4.30;;;1.17;;
793;SDS011;380;48.738;9.214;2023-12-29T11:28:42;1.50;;;0.85;;
793;SDS011;380;48.738;9.214;2023-12-29T11:31:09;1.17;;;0.63;;
793;SDS011;380;48.738;9.214;2023-12-29T11:33:38;1.92;;;1.05;;
793;SDS011;380;48.738;9.214;2023-12-29T11:36:16;1.58;;;0.85;;
793;SDS011;380;48.738;9.214;2023-12-29T11:41:42;1.58;;;0.80;;
793;SDS011;380;48.738;9.214;2023-12-29T11:44:09;1.92;;;1.00;;
793;SDS011;380;48.738;9.214;2023-12-29T11:46:39;3.05;;;1.05;;
793;SDS011;380;48.738;9.214;2023-12-29T11:49:07;1.58;;;0.80;;
793;SDS011;380;48.738;9.214;2023-12-29T11:51:34;2.03;;;0.80;;
793;SDS011;380;48.738;9.214;2023-12-29T11:54:01;1.73;;;0.88;;
793;SDS011;380;48.738;9.214;2023-12-29T11:56:37;1.27;;;0.80;;
793;SDS011;380;48.738;9.214;2023-12-29T11:59:14;2.20;;;1.02;;
793;SDS011;380;48.738;9.214;2023-12-29T12:01:40;1.27;;;0.75;;
793;SDS011;380;48.738;9.214;2023-12-29T12:06:51;1.73;;;0.82;;
793;SDS011;380;48.738;9.214;2023-12-29T12:09:22;1.85;;;0.90;;
793;SDS011;380;48.738;9.214;2023-12-29T12:11:49;1.30;;;0.57;;
793;SDS011;380;48.738;9.214;2023-12-29T12:17:00;1.55;;;0.70;;
793;SDS011;380;48.738;9.214;2023-12-29T12:19:26;1.35;;;0.80;;
793;SDS011;380;48.738;9.214;2023-12-29T12:21:54;2.17;;;1.30;;
793;SDS011;380;48.738;9.214;2023-12-29T12:24:21;4.35;;;1.13;;
793;SDS011;380;48.738;9.214;2023-12-29T12:26:47;1.70;;;0.82;;
793;SDS011;380;48.738;9.214;2023-12-29T12:29:14;1.73;;;0.90;;
793;SDS011;380;48.738;9.214;2023-12-29T12:31:53;1.40;;;0.70;;
793;SDS011;380;48.738;9.214;2023-12-29T12:34:19;1.75;;;0.82;;
793;SDS011;380;48.738;9.214;2023-12-29T12:36:48;2.28;;;1.13;;
793;SDS011;380;48.738;9.214;2023-12-29T12:39:15;1.30;;;0.90;;
793;SDS011;380;48.738;9.214;2023-12-29T12:41:41;1.33;;;0.75;;
793;SDS011;380;48.738;9.214;2023-12-29T12:44:09;2.70;;;0.70;;
793;SDS011;380;48.738;9.214;2023-12-29T12:46:49;1.60;;;0.77;;
793;SDS011;380;48.738;9.214;2023-12-29T12:49:15;1.70;;;0.90;;
793;SDS011;380;48.738;9.214;2023-12-29T12:51:42;1.55;;;0.73;;
793;SDS011;380;48.738;9.214;2023-12-29T12:54:08;2.25;;;0.80;;
793;SDS011;380;48.738;9.214;2023-12-29T12:56:35;1.80;;;0.60;;
793;SDS011;380;48.738;9.214;2023-12-29T12:59:02;2.28;;;1.00;;
793;SDS011;380;48.738;9.214;2023-12-29T13:01:28;1.77;;;0.90;;
793;SDS011;380;48.738;9.214;2023-12-29T13:03:54;1.35;;;0.77;;
793;SDS011;380;48.738;9.214;2023-12-29T13:06:21;1.75;;;0.93;;
793;SDS011;380;48.738;9.214;2023-12-29T13:08:50;1.83;;;0.95;;
793;SDS011;380;48.738;9.214;2023-12-29T13:11:20;2.38;;;1.13;;
793;SDS011;380;48.738;9.214;2023-12-29T13:13:50;3.58;;;0.52;;
793;SDS011;380;48.738;9.214;2023-12-29T13:16:55;4.03;;;1.08;;
793;SDS011;380;48.738;9.214;2023-12-29T13:19:15;1.90;;;1.00;;
793;SDS011;380;48.738;9.214;2023-12-29T13:21:45;1.40;;;0.90;;
793;SDS011;380;48.738;9.214;2023-12-29T13:24:10;1.40;;;0.70;;
793;SDS011;380;48.738;9.214;2023-12-29T13:26:37;3.08;;;1.25;;
793;SDS011;380;48.738;9.214;2023-12-29T13:29:03;1.35;;;0.70;;
793;SDS011;380;48.738;9.214;2023-12-29T13:31:29;1.33;;;0.70;;
793;SDS011;380;48.738;9.214;2023-12-29T13:34:03;1.67;;;0.90;;
793;SDS011;380;48.738;9.214;2023-12-29T13:36:34;2.63;;;0.77;;
793;SDS011;380;48.738;9.214;2023-12-29T13:41:47;1.42;;;0.82;;
793;SDS011;380;48.738;9.214;2023-12-29T13:44:14;1.38;;;0.65;;
793;SDS011;380;48.738;9.214;2023-12-29T13:46:40;1.90;;;0.93;;
793;SDS011;380;48.738;9.214;2023-12-29T13:49:06;1.33;;;0.70;;
793;SDS011;380;48.738;9.214;2023-12-29T13:51:33;1.60;;;0.90;;
793;SDS011;380;48.738;9.214;2023-12-29T13:53:59;1.90;;;1.00;;
793;SDS011;380;48.738;9.214;2023-12-29T13:56:25;2.47;;;0.80;;
793;SDS011;380;48.738;9.214;2023-12-29T13:58:51;2.72;;;1.02;;
793;SDS011;380;48.738;9.214;2023-12-29T14:01:17;1.52;;;0.88;;
793;SDS011;380;48.738;9.214;2023-12-29T14:03:50;2.15;;;1.02;;
793;SDS011;380;48.738;9.214;2023-12-29T14:06:27;1.48;;;0.73;;
793;SDS011;380;48.738;9.214;2023-12-29T14:08:55;1.70;;;0.70;;
793;SDS011;380;48.738;9.214;2023-12-29T14:11:21;1.70;;;0.90;;
793;SDS011;380;48.738;9.214;2023-12-29T14:13:47;2.42;;;1.08;;
793;SDS011;380;48.738;9.214;2023-12-29T14:16:13;1.55;;;0.80;;
793;SDS011;380;48.738;9.214;2023-12-29T14:24:05;2.75;;;1.33;;
793;SDS011;380;48.738;9.214;2023-12-29T14:26:38;1.52;;;0.93;;
793;SDS011;380;48.738;9.214;2023-12-29T14:29:08;1.90;;;0.98;;
793;SDS011;380;48.738;9.214;2023-12-29T14:31:41;1.70;;;1.00;;
793;SDS011;380;48.738;9.214;2023-12-29T14:34:08;1.60;;;0.75;;
793;SDS011;380;48.738;9.214;2023-12-29T14:36:34;1.63;;;0.90;;
793;SDS011;380;48.738;9.214;2023-12-29T14:39:00;2.85;;;0.93;;
793;SDS011;380;48.738;9.214;2023-12-29T14:41:27;2.25;;;0.80;;
793;SDS011;380;48.738;9.214;2023-12-29T14:43:53;1.60;;;0.80;;
793;SDS011;380;48.738;9.214;2023-12-29T14:46:19;1.95;;;1.10;;
793;SDS011;380;48.738;9.214;2023-12-29T14:48:45;2.58;;;1.20;;
793;SDS011;380;48.738;9.214;2023-12-29T14:51:11;1.50;;;0.82;;
793;SDS011;380;48.738;9.214;2023-12-29T14:53:37;1.80;;;1.10;;
793;SDS011;380;48.738;9.214;2023-12-29T14:56:03;3.72;;;1.17;;
793;SDS011;380;48.738;9.214;2023-12-29T14:58:29;1.52;;;0.65;;
793;SDS011;380;48.738;9.214;2023-12-29T15:00:58;1.67;;;0.88;;
793;SDS011;380;48.738;9.214;2023-12-29T15:03:24;1.83;;;1.02;;
793;SDS011;380;48.738;9.214;2023-12-29T15:05:50;1.80;;;0.95;;
793;SDS011;380;48.738;9.214;2023-12-29T15:08:16;2.03;;;1.42;;
793;SDS011;380;48.738;9.214;2023-12-29T15:10:42;1.63;;;0.80;;
793;SDS011;380;48.738;9.214;2023-12-29T15:13:09;1.50;;;0.90;;
793;SDS011;380;48.738;9.214;2023-12-29T15:15:35;2.17;;;1.02;;
793;SDS011;380;48.738;9.214;2023-12-29T15:18:01;1.80;;;1.08;;
793;SDS011;380;48.738;9.214;2023-12-29T15:20:27;1.95;;;1.00;;
793;SDS011;380;48.738;9.214;2023-12-29T15:22:53;1.73;;;0.82;;
793;SDS011;380;48.738;9.214;2023-12-29T15:25:24;2.28;;;1.00;;
793;SDS011;380;48.738;9.214;2023-12-29T15:27:50;0.95;;;0.50;;
793;SDS011;380;48.738;9.214;2023-12-29T15:30:16;1.40;;;0.70;;
793;SDS011;380;48.738;9.214;2023-12-29T15:32:42;1.60;;;0.90;;
793;SDS011;380;48.738;9.214;2023-12-29T15:35:08;2.33;;;0.77;;
793;SDS011;380;48.738;9.214;2023-12-29T15:37:34;2.35;;;1.23;;
793;SDS011;380;48.738;9.214;2023-12-29T15:40:01;2.08;;;1.10;;
793;SDS011;380;48.738;9.214;2023-12-29T15:42:27;1.95;;;0.98;;
793;SDS011;380;48.738;9.214;2023-12-29T15:44:53;1.90;;;0.60;;
793;SDS011;380;48.738;9.214;2023-12-29T15:47:19;1.60;;;0.80;;
793;SDS011;380;48.738;9.214;2023-12-29T15:49:45;1.67;;;1.00;;
793;SDS011;380;48.738;9.214;2023-12-29T15:52:11;1.77;;;0.82;;
793;SDS011;380;48.738;9.214;2023-12-29T15:54:37;1.55;;;0.88;;
793;SDS011;380;48.738;9.214;2023-12-29T15:57:03;2.13;;;1.00;;
793;SDS011;380;48.738;9.214;2023-12-29T15:59:32;1.60;;;0.90;;
793;SDS011;380;48.738;9.214;2023-12-29T16:01:58;1.90;;;0.77;;
793;SDS011;380;48.738;9.214;2023-12-29T16:04:24;1.92;;;1.05;;
793;SDS011;380;48.738;9.214;2023-12-29T16:06:50;2.55;;;1.30;;
793;SDS011;380;48.738;9.214;2023-12-29T16:09:16;4.07;;;1.02;;